createdAt,value
2022-09-03T00:01:03.731Z,1.90
2022-09-03T00:03:59.086Z,2.33
2022-09-03T00:06:56.956Z,2.58
2022-09-03T00:09:52.329Z,2.25
2022-09-03T00:12:46.322Z,2.65
2022-09-03T00:15:37.206Z,2.03
2022-09-03T00:18:31.782Z,3.55
2022-09-03T00:21:29.832Z,1.90
2022-09-03T00:24:22.854Z,1.90
2022-09-03T00:27:21.658Z,1.83
2022-09-03T00:30:17.241Z,1.88
2022-09-03T00:33:15.990Z,1.75
2022-09-03T00:36:06.199Z,1.75
2022-09-03T00:38:56.717Z,1.80
2022-09-03T00:42:10.760Z,1.85
2022-09-03T00:45:27.142Z,1.60
2022-09-03T00:48:28.512Z,1.80
2022-09-03T00:51:37.554Z,1.80
2022-09-03T00:54:42.837Z,1.80
2022-09-03T00:57:48.639Z,1.60
2022-09-03T01:00:40.541Z,2.03
2022-09-03T01:07:14.041Z,1.63
2022-09-03T01:10:32.837Z,1.80
2022-09-03T01:13:31.190Z,1.63
2022-09-03T01:16:23.433Z,1.88
2022-09-03T01:19:55.336Z,1.73
2022-09-03T01:23:07.581Z,1.63
2022-09-03T01:29:20.963Z,1.75
2022-09-03T01:32:16.370Z,1.90
2022-09-03T01:35:29.088Z,2.05
2022-09-03T01:38:36.441Z,2.03
2022-09-03T01:41:57.453Z,2.92
2022-09-03T01:45:08.528Z,1.88
2022-09-03T01:48:23.098Z,1.75
2022-09-03T01:51:19.007Z,1.80
2022-09-03T01:54:34.007Z,1.80
2022-09-03T01:57:50.592Z,1.75
2022-09-03T02:00:44.689Z,1.80
2022-09-03T02:03:41.824Z,2.03
2022-09-03T02:06:35.464Z,1.88
2022-09-03T02:09:32.551Z,1.73
2022-09-03T02:12:24.190Z,1.90
2022-09-03T02:15:18.686Z,2.00
2022-09-03T02:18:15.042Z,1.80
2022-09-03T02:21:06.067Z,1.80
2022-09-03T02:23:55.641Z,3.20
2022-09-03T02:26:45.351Z,2.00
2022-09-03T02:29:35.000Z,1.95
2022-09-03T02:32:26.605Z,1.88
2022-09-03T02:35:16.203Z,2.13
2022-09-03T02:38:15.240Z,1.85
2022-09-03T02:41:06.265Z,2.08
2022-09-03T02:44:27.014Z,2.25
2022-09-03T02:47:17.082Z,2.47
2022-09-03T02:50:06.928Z,1.90
2022-09-03T02:52:56.731Z,1.85
2022-09-03T02:55:46.207Z,2.13
2022-09-03T02:58:36.123Z,1.98
2022-09-03T03:01:26.330Z,2.40
2022-09-03T03:04:16.060Z,2.10
2022-09-03T03:07:07.475Z,2.28
2022-09-03T03:09:56.778Z,3.58
2022-09-03T03:12:46.522Z,2.10
2022-09-03T03:15:36.046Z,1.83
2022-09-03T03:18:26.566Z,2.30
2022-09-03T03:21:19.389Z,3.22
2022-09-03T03:24:10.454Z,1.85
2022-09-03T03:27:00.290Z,1.80
2022-09-03T03:29:49.623Z,2.67
2022-09-03T03:32:39.589Z,2.10
2022-09-03T03:35:28.994Z,2.17
2022-09-03T03:38:18.145Z,2.33
2022-09-03T03:41:26.055Z,2.78
2022-09-03T03:44:16.249Z,2.65
2022-09-03T03:47:07.068Z,2.72
2022-09-03T03:49:56.605Z,3.00
2022-09-03T03:52:45.900Z,3.97
2022-09-03T03:55:35.410Z,5.65
2022-09-03T03:58:26.119Z,5.13
2022-09-03T04:01:20.288Z,4.75
2022-09-03T04:04:12.366Z,5.65
2022-09-03T04:07:03.554Z,3.65
2022-09-03T04:09:52.759Z,5.75
2022-09-03T04:12:41.961Z,5.05
2022-09-03T04:15:31.447Z,4.68
2022-09-03T04:18:21.172Z,4.95
2022-09-03T04:21:18.954Z,4.45
2022-09-03T04:24:09.157Z,5.53
2022-09-03T04:26:59.459Z,4.20
2022-09-03T04:29:50.126Z,5.95
2022-09-03T04:32:56.117Z,7.63
2022-09-03T04:35:47.028Z,8.55
2022-09-03T04:38:38.677Z,9.15
2022-09-03T04:41:31.380Z,7.13
2022-09-03T04:44:21.699Z,10.05
2022-09-03T04:47:11.744Z,9.20
2022-09-03T04:50:03.305Z,9.18
2022-09-03T04:52:53.037Z,10.93
2022-09-03T04:55:43.120Z,8.65
2022-09-03T04:58:32.979Z,9.48
2022-09-03T05:01:25.340Z,9.65
2022-09-03T05:04:15.796Z,10.30
2022-09-03T05:07:05.999Z,10.15
2022-09-03T05:09:56.258Z,9.20
2022-09-03T05:12:46.738Z,11.00
2022-09-03T05:15:37.135Z,10.90
2022-09-03T05:18:26.987Z,13.48
2022-09-03T05:21:19.782Z,10.88
2022-09-03T05:24:10.338Z,14.25
2022-09-03T05:27:00.702Z,10.20
2022-09-03T05:29:51.623Z,13.43
2022-09-03T05:32:42.982Z,12.48
2022-09-03T05:35:34.343Z,11.32
2022-09-03T05:38:28.821Z,13.45
2022-09-03T05:41:20.737Z,12.35
2022-09-03T05:47:01.812Z,14.77
2022-09-03T05:49:52.998Z,14.77
2022-09-03T05:52:43.808Z,13.75
2022-09-03T05:55:35.167Z,17.40
2022-09-03T05:58:26.751Z,15.85
2022-09-03T06:04:19.875Z,12.98
2022-09-03T06:07:10.897Z,16.10
2022-09-03T06:10:01.734Z,14.93
2022-09-03T06:12:54.179Z,17.45
2022-09-03T06:15:44.282Z,15.80
2022-09-03T06:18:36.780Z,15.23
2022-09-03T06:21:26.817Z,14.55
2022-09-03T06:24:26.378Z,17.25
2022-09-03T06:27:18.805Z,16.65
2022-09-03T06:30:10.823Z,17.75
2022-09-03T06:33:01.540Z,16.38
2022-09-03T06:35:59.340Z,16.05
2022-09-03T06:38:50.195Z,17.23
2022-09-03T06:41:42.177Z,15.63
2022-09-03T06:44:33.016Z,18.80
2022-09-03T06:47:23.457Z,18.58
2022-09-03T06:50:14.122Z,19.20
2022-09-03T06:53:03.722Z,18.73
2022-09-03T06:56:03.000Z,17.63
2022-09-03T06:58:55.464Z,19.15
2022-09-03T07:01:46.913Z,17.10
2022-09-03T07:04:36.454Z,17.23
2022-09-03T07:07:27.460Z,16.75
2022-09-03T07:10:22.662Z,20.63
2022-09-03T07:13:12.897Z,18.75
2022-09-03T07:16:14.884Z,20.85
2022-09-03T07:21:56.031Z,18.67
2022-09-03T07:24:49.111Z,18.08
2022-09-03T07:27:39.623Z,19.77
2022-09-03T07:30:32.797Z,19.02
2022-09-03T07:33:23.708Z,17.58
2022-09-03T07:36:17.016Z,18.63
2022-09-03T07:39:09.218Z,19.20
2022-09-03T07:42:00.112Z,17.63
2022-09-03T07:44:51.777Z,18.63
2022-09-03T07:47:52.179Z,19.92
2022-09-03T07:50:42.983Z,19.50
2022-09-03T07:53:35.003Z,19.95
2022-09-03T07:56:26.100Z,18.50
2022-09-03T07:59:16.475Z,18.83
2022-09-03T08:02:07.462Z,20.65
2022-09-03T08:04:57.895Z,19.63
2022-09-03T08:07:49.537Z,20.33
2022-09-03T08:10:48.418Z,19.25
2022-09-03T08:13:43.460Z,18.70
2022-09-03T08:16:36.914Z,18.58
2022-09-03T08:19:27.769Z,18.92
2022-09-03T08:22:17.707Z,20.55
2022-09-03T08:25:07.995Z,18.25
2022-09-03T08:28:05.329Z,21.10
2022-09-03T08:30:56.932Z,18.50
2022-09-03T08:33:52.749Z,19.27
2022-09-03T08:36:43.857Z,20.30
2022-09-03T08:39:34.473Z,18.50
2022-09-03T08:42:56.010Z,19.90
2022-09-03T08:45:47.304Z,19.08
2022-09-03T08:48:37.390Z,20.95
2022-09-03T08:51:30.969Z,18.23
2022-09-03T08:54:25.705Z,17.98
2022-09-03T08:57:17.892Z,17.30
2022-09-03T09:03:01.629Z,17.70
2022-09-03T09:06:12.106Z,20.20
2022-09-03T09:09:11.354Z,19.63
2022-09-03T09:12:18.337Z,19.23
2022-09-03T09:15:15.373Z,19.65
2022-09-03T09:18:14.994Z,18.77
2022-09-03T09:21:26.208Z,21.50
2022-09-03T09:24:44.666Z,20.13
2022-09-03T09:27:35.221Z,21.20
2022-09-03T09:30:25.229Z,16.35
2022-09-03T09:33:17.631Z,16.42
2022-09-03T09:36:19.077Z,18.98
2022-09-03T09:39:13.863Z,19.05
2022-09-03T09:42:13.743Z,16.55
2022-09-03T09:45:13.057Z,19.00
2022-09-03T09:48:06.183Z,17.25
2022-09-03T09:51:15.963Z,18.40
2022-09-03T09:54:21.337Z,15.88
2022-09-03T09:57:27.183Z,16.45
2022-09-03T10:00:20.196Z,18.15
2022-09-03T10:03:14.609Z,17.15
2022-09-03T10:06:36.600Z,15.38
2022-09-03T10:12:49.698Z,16.95
2022-09-03T10:15:54.542Z,16.70
2022-09-03T10:19:00.596Z,16.50
2022-09-03T10:22:04.649Z,17.95
2022-09-03T10:25:02.817Z,15.02
2022-09-03T10:27:59.919Z,17.10
2022-09-03T10:31:17.108Z,17.40
2022-09-03T10:34:06.983Z,17.90
2022-09-03T10:37:16.718Z,16.13
2022-09-03T10:40:46.640Z,16.75
2022-09-03T10:43:55.979Z,16.08
2022-09-03T10:46:57.217Z,18.33
2022-09-03T10:50:11.783Z,17.83
2022-09-03T10:53:27.953Z,14.10
2022-09-03T10:56:35.176Z,16.63
2022-09-03T10:59:52.707Z,17.35
2022-09-03T11:03:00.961Z,15.30
2022-09-03T11:05:55.112Z,17.17
2022-09-03T11:09:06.463Z,15.20
2022-09-03T11:12:12.020Z,14.90
2022-09-03T11:15:13.226Z,15.00
2022-09-03T11:18:22.634Z,13.77
2022-09-03T11:21:18.063Z,14.13
2022-09-03T11:24:22.824Z,18.15
2022-09-03T11:27:35.389Z,14.07
2022-09-03T11:30:31.447Z,15.02
2022-09-03T11:33:25.637Z,12.77
2022-09-03T11:36:25.449Z,13.90
2022-09-03T11:39:21.185Z,15.40
2022-09-03T11:42:26.860Z,15.35
2022-09-03T11:45:29.223Z,14.30
2022-09-03T11:51:34.114Z,17.60
2022-09-03T11:54:25.059Z,18.15
2022-09-03T11:57:18.065Z,14.23
2022-09-03T12:00:23.143Z,17.88
2022-09-03T12:03:19.236Z,16.40
2022-09-03T12:06:47.183Z,16.17
2022-09-03T12:10:14.582Z,17.48
2022-09-03T12:13:25.643Z,17.30
2022-09-03T12:16:51.786Z,15.98
2022-09-03T12:20:00.939Z,16.10
2022-09-03T12:25:49.485Z,17.88
2022-09-03T12:28:44.347Z,14.57
2022-09-03T12:31:47.819Z,18.60
2022-09-03T12:34:37.919Z,16.27
2022-09-03T12:44:01.219Z,19.80
2022-09-03T12:47:33.543Z,17.85
2022-09-03T12:50:08.820Z,17.17
2022-09-03T12:53:06.098Z,18.17
2022-09-03T12:56:02.955Z,18.40
2022-09-03T12:59:01.773Z,17.63
2022-09-03T13:02:00.256Z,19.33
2022-09-03T13:04:53.544Z,19.35
2022-09-03T13:07:54.038Z,19.70
2022-09-03T13:10:47.789Z,20.33
2022-09-03T13:13:40.985Z,17.90
2022-09-03T13:16:55.850Z,17.83
2022-09-03T13:20:05.084Z,19.05
2022-09-03T13:23:14.260Z,20.02
2022-09-03T13:26:43.558Z,20.33
2022-09-03T13:30:01.468Z,17.75
2022-09-03T13:33:19.052Z,17.40
2022-09-03T13:36:22.019Z,18.00
2022-09-03T13:39:35.828Z,20.05
2022-09-03T13:42:33.217Z,15.93
2022-09-03T13:45:31.804Z,20.20
2022-09-03T13:48:57.972Z,17.80
2022-09-03T13:51:58.686Z,21.25
2022-09-03T13:54:55.778Z,17.38
2022-09-03T13:57:59.629Z,16.70
2022-09-03T14:01:27.900Z,18.55
2022-09-03T14:04:33.617Z,20.35
2022-09-03T14:07:58.429Z,17.02
2022-09-03T14:11:32.553Z,18.65
2022-09-03T14:14:53.219Z,19.88
2022-09-03T14:18:17.993Z,20.45
2022-09-03T14:21:30.026Z,19.38
2022-09-03T14:24:32.132Z,17.67
2022-09-03T14:27:37.218Z,20.73
2022-09-03T14:30:55.652Z,15.65
2022-09-03T14:34:13.375Z,19.67
2022-09-03T14:37:10.329Z,20.35
2022-09-03T14:40:11.685Z,17.02
2022-09-03T14:43:21.697Z,24.38
2022-09-03T14:46:45.704Z,17.67
2022-09-03T14:49:56.792Z,18.05
2022-09-03T14:53:14.018Z,23.45
2022-09-03T14:56:28.382Z,16.67
2022-09-03T14:59:32.929Z,16.10
2022-09-03T15:02:36.992Z,15.65
2022-09-03T15:05:57.219Z,18.48
2022-09-03T15:09:00.427Z,14.48
2022-09-03T15:12:07.977Z,16.83
2022-09-03T15:15:02.929Z,13.57
2022-09-03T15:18:15.513Z,17.38
2022-09-03T15:21:25.258Z,17.13
2022-09-03T15:24:26.179Z,19.60
2022-09-03T15:27:39.702Z,16.50
2022-09-03T15:30:38.856Z,20.17
2022-09-03T15:33:42.160Z,15.77
2022-09-03T15:36:45.382Z,23.48
2022-09-03T15:39:45.772Z,18.67
2022-09-03T15:42:38.358Z,15.15
2022-09-03T15:49:01.321Z,15.95
2022-09-03T15:52:05.432Z,15.88
2022-09-03T15:55:24.912Z,15.93
2022-09-03T15:58:40.295Z,17.85
2022-09-03T16:01:43.817Z,17.80
2022-09-03T16:04:58.184Z,17.58
2022-09-03T16:08:18.422Z,15.38
2022-09-03T16:11:12.225Z,18.67
2022-09-03T16:14:10.027Z,15.75
2022-09-03T16:17:37.864Z,16.05
2022-09-03T16:20:49.546Z,17.27
2022-09-03T16:23:54.080Z,16.73
2022-09-03T16:27:04.591Z,14.27
2022-09-03T16:30:14.254Z,17.80
2022-09-03T16:33:30.609Z,15.00
2022-09-03T16:36:43.947Z,14.88
2022-09-03T16:39:40.182Z,15.32
2022-09-03T16:42:41.225Z,16.45
2022-09-03T16:46:07.725Z,15.60
2022-09-03T16:49:09.967Z,15.93
2022-09-03T16:52:37.915Z,15.55
2022-09-03T16:56:09.008Z,14.43
2022-09-03T16:59:35.667Z,13.57
2022-09-03T17:02:41.285Z,14.50
2022-09-03T17:05:52.852Z,13.98
2022-09-03T17:08:46.498Z,21.65
2022-09-03T17:11:42.344Z,16.63
2022-09-03T17:15:13.434Z,19.58
2022-09-03T17:18:19.000Z,16.80
2022-09-03T17:21:20.031Z,30.35
2022-09-03T17:24:26.337Z,22.40
2022-09-03T17:27:40.578Z,26.83
2022-09-03T17:30:59.611Z,15.40
2022-09-03T17:34:32.442Z,20.77
2022-09-03T17:37:25.154Z,18.52
2022-09-03T17:40:38.218Z,19.52
2022-09-03T17:43:56.034Z,17.73
2022-09-03T17:47:10.279Z,13.65
2022-09-03T17:50:20.181Z,14.85
2022-09-03T17:53:46.283Z,16.30
2022-09-03T17:57:04.209Z,15.65
2022-09-03T18:00:00.278Z,15.82
2022-09-03T18:03:24.571Z,12.30
2022-09-03T18:06:44.315Z,14.18
2022-09-03T18:09:43.635Z,13.93
2022-09-03T18:13:03.578Z,17.23
2022-09-03T18:16:12.463Z,17.35
2022-09-03T18:19:34.115Z,14.95
2022-09-03T18:22:50.035Z,14.25
2022-09-03T18:26:03.690Z,14.38
2022-09-03T18:29:24.347Z,14.35
2022-09-03T18:32:33.010Z,14.80
2022-09-03T18:35:42.022Z,14.25
2022-09-03T18:38:58.191Z,13.15
2022-09-03T18:42:51.272Z,13.07
2022-09-03T18:47:47.747Z,14.98
2022-09-03T18:50:22.615Z,14.77
2022-09-03T18:53:58.479Z,16.33
2022-09-03T18:57:12.298Z,14.70
2022-09-03T19:00:35.477Z,14.32
2022-09-03T19:04:02.363Z,17.92
2022-09-03T19:07:22.411Z,21.50
2022-09-03T19:11:14.684Z,18.52
2022-09-03T19:14:32.417Z,17.00
2022-09-03T19:18:12.579Z,26.48
2022-09-03T19:21:26.858Z,19.77
2022-09-03T19:24:35.756Z,18.30
2022-09-03T19:27:59.610Z,21.33
2022-09-03T19:31:36.327Z,17.10
2022-09-03T19:34:59.530Z,14.90
2022-09-03T19:38:41.567Z,16.88
2022-09-03T19:42:03.620Z,25.85
2022-09-03T19:45:32.337Z,22.52
2022-09-03T19:48:50.287Z,23.30
2022-09-03T19:52:05.379Z,18.13
2022-09-03T19:55:17.539Z,21.88
2022-09-03T19:58:42.451Z,15.40
2022-09-03T20:01:57.848Z,13.68
2022-09-03T20:05:20.102Z,17.20
2022-09-03T20:08:29.791Z,20.23
2022-09-03T20:11:22.509Z,17.13
2022-09-03T20:14:17.247Z,18.40
2022-09-03T20:17:28.969Z,17.00
2022-09-03T20:20:28.556Z,18.17
2022-09-03T20:23:43.138Z,19.42
2022-09-03T20:26:45.999Z,19.20
2022-09-03T20:30:04.940Z,18.63
2022-09-03T20:33:13.235Z,14.00
2022-09-03T20:36:17.987Z,21.10
2022-09-03T20:39:21.893Z,19.85
2022-09-03T20:42:45.380Z,21.73
2022-09-03T20:45:59.811Z,18.95
2022-09-03T20:49:23.386Z,18.70
2022-09-03T20:52:27.174Z,18.23
2022-09-03T20:55:22.730Z,17.65
2022-09-03T20:58:31.710Z,16.95
2022-09-03T21:01:27.689Z,22.10
2022-09-03T21:04:51.032Z,15.60
2022-09-03T21:07:57.631Z,16.02
2022-09-03T21:11:01.405Z,15.20
2022-09-03T21:14:26.922Z,16.02
2022-09-03T21:17:49.246Z,15.52
2022-09-03T21:20:49.465Z,17.20
2022-09-03T21:23:47.459Z,12.60
2022-09-03T21:26:44.102Z,9.85
2022-09-03T21:29:48.233Z,13.55
2022-09-03T21:32:57.778Z,12.40
2022-09-03T21:35:55.008Z,15.02
2022-09-03T21:38:49.537Z,13.93
2022-09-03T21:42:12.969Z,12.52
2022-09-03T21:45:09.561Z,11.10
2022-09-03T21:48:10.674Z,11.38
2022-09-03T21:51:03.314Z,20.50
2022-09-03T21:57:22.106Z,12.27
2022-09-03T22:00:23.060Z,13.50
2022-09-03T22:03:15.329Z,11.30
2022-09-03T22:09:20.904Z,10.77
2022-09-03T22:12:32.402Z,12.00
2022-09-03T22:15:23.951Z,10.15
2022-09-03T22:18:30.978Z,11.30
2022-09-03T22:21:35.057Z,10.93
2022-09-03T22:24:28.583Z,9.63
2022-09-03T22:27:48.600Z,10.88
2022-09-03T22:31:19.150Z,11.57
2022-09-03T22:34:22.063Z,13.13
2022-09-03T22:37:36.445Z,10.73
2022-09-03T22:40:52.433Z,10.85
2022-09-03T22:44:04.889Z,13.07
2022-09-03T22:47:27.674Z,13.30
2022-09-03T22:50:25.600Z,8.73
2022-09-03T22:53:26.898Z,11.48
2022-09-03T22:56:25.074Z,10.02
2022-09-03T22:59:25.496Z,11.05
2022-09-03T23:02:22.817Z,9.80
2022-09-03T23:05:52.158Z,8.43
2022-09-03T23:08:49.354Z,13.95
2022-09-03T23:11:45.435Z,10.15
2022-09-03T23:14:50.515Z,7.93
2022-09-03T23:17:48.951Z,10.32
2022-09-03T23:20:43.146Z,10.10
2022-09-03T23:23:52.198Z,7.93
2022-09-03T23:26:46.398Z,9.75
2022-09-03T23:29:47.250Z,8.77
2022-09-03T23:32:37.534Z,8.60
2022-09-03T23:35:59.137Z,6.50
2022-09-03T23:39:10.604Z,7.35
2022-09-03T23:42:00.890Z,8.15
2022-09-03T23:44:58.288Z,7.55
2022-09-03T23:48:15.380Z,9.38
2022-09-03T23:51:29.550Z,9.23
2022-09-03T23:54:44.570Z,8.73
2022-09-03T23:57:42.050Z,7.13
